sensor_id;sensor_type;location;lat;lon;timestamp;P1;durP1;ratioP1;P2;durP2;ratioP2
42244;SDS011;27912;51.828;5.688;2023-02-15T00:01:54;57.00;;;28.88;;
42244;SDS011;27912;51.828;5.688;2023-02-15T00:04:20;57.75;;;28.17;;
42244;SDS011;27912;51.828;5.688;2023-02-15T00:06:47;56.72;;;27.92;;
42244;SDS011;27912;51.828;5.688;2023-02-15T00:09:14;55.40;;;26.15;;
42244;SDS011;27912;51.828;5.688;2023-02-15T00:11:40;53.85;;;26.15;;
42244;SDS011;27912;51.828;5.688;2023-02-15T00:16:43;55.08;;;28.52;;
42244;SDS011;27912;51.828;5.688;2023-02-15T00:19:09;55.53;;;28.48;;
42244;SDS011;27912;51.828;5.688;2023-02-15T00:21:36;53.70;;;28.48;;
42244;SDS011;27912;51.828;5.688;2023-02-15T00:24:03;53.38;;;26.73;;
42244;SDS011;27912;51.828;5.688;2023-02-15T00:26:31;52.35;;;25.98;;
42244;SDS011;27912;51.828;5.688;2023-02-15T00:28:57;54.80;;;28.30;;
42244;SDS011;27912;51.828;5.688;2023-02-15T00:31:26;57.00;;;27.15;;
42244;SDS011;27912;51.828;5.688;2023-02-15T00:33:55;58.05;;;28.30;;
42244;SDS011;27912;51.828;5.688;2023-02-15T00:36:25;55.13;;;27.92;;
42244;SDS011;27912;51.828;5.688;2023-02-15T00:38:50;54.50;;;27.52;;
42244;SDS011;27912;51.828;5.688;2023-02-15T00:41:16;54.97;;;27.13;;
42244;SDS011;27912;51.828;5.688;2023-02-15T00:43:41;60.95;;;28.95;;
42244;SDS011;27912;51.828;5.688;2023-02-15T00:46:07;52.80;;;26.45;;
42244;SDS011;27912;51.828;5.688;2023-02-15T00:48:32;55.42;;;28.23;;
42244;SDS011;27912;51.828;5.688;2023-02-15T00:50:59;52.88;;;26.73;;
42244;SDS011;27912;51.828;5.688;2023-02-15T00:53:25;51.67;;;26.27;;
42244;SDS011;27912;51.828;5.688;2023-02-15T00:55:52;56.55;;;26.60;;
42244;SDS011;27912;51.828;5.688;2023-02-15T00:58:18;52.28;;;26.35;;
42244;SDS011;27912;51.828;5.688;2023-02-15T01:00:44;53.72;;;26.88;;
42244;SDS011;27912;51.828;5.688;2023-02-15T01:03:11;52.33;;;25.35;;
42244;SDS011;27912;51.828;5.688;2023-02-15T01:05:38;52.88;;;24.48;;
42244;SDS011;27912;51.828;5.688;2023-02-15T01:08:03;56.13;;;26.17;;
42244;SDS011;27912;51.828;5.688;2023-02-15T01:10:29;52.45;;;26.15;;
42244;SDS011;27912;51.828;5.688;2023-02-15T01:12:55;58.75;;;26.95;;
42244;SDS011;27912;51.828;5.688;2023-02-15T01:15:22;47.75;;;25.35;;
42244;SDS011;27912;51.828;5.688;2023-02-15T01:17:48;53.85;;;26.58;;
42244;SDS011;27912;51.828;5.688;2023-02-15T01:20:22;58.63;;;28.52;;
42244;SDS011;27912;51.828;5.688;2023-02-15T01:22:50;53.33;;;27.08;;
42244;SDS011;27912;51.828;5.688;2023-02-15T01:25:16;60.13;;;26.88;;
42244;SDS011;27912;51.828;5.688;2023-02-15T01:27:42;54.30;;;27.00;;
42244;SDS011;27912;51.828;5.688;2023-02-15T01:30:08;54.10;;;26.85;;
42244;SDS011;27912;51.828;5.688;2023-02-15T01:32:34;54.70;;;26.98;;
42244;SDS011;27912;51.828;5.688;2023-02-15T01:35:00;55.22;;;26.40;;
42244;SDS011;27912;51.828;5.688;2023-02-15T01:37:26;55.50;;;27.17;;
42244;SDS011;27912;51.828;5.688;2023-02-15T01:39:51;52.83;;;25.83;;
42244;SDS011;27912;51.828;5.688;2023-02-15T01:42:22;52.28;;;26.70;;
42244;SDS011;27912;51.828;5.688;2023-02-15T01:44:56;51.85;;;24.95;;
42244;SDS011;27912;51.828;5.688;2023-02-15T01:47:26;48.95;;;24.63;;
42244;SDS011;27912;51.828;5.688;2023-02-15T01:50:10;54.63;;;24.30;;
42244;SDS011;27912;51.828;5.688;2023-02-15T01:52:37;59.45;;;26.77;;
42244;SDS011;27912;51.828;5.688;2023-02-15T01:55:05;49.45;;;24.38;;
42244;SDS011;27912;51.828;5.688;2023-02-15T01:57:32;50.90;;;24.58;;
42244;SDS011;27912;51.828;5.688;2023-02-15T01:59:58;59.85;;;27.88;;
42244;SDS011;27912;51.828;5.688;2023-02-15T02:02:28;46.67;;;24.92;;
42244;SDS011;27912;51.828;5.688;2023-02-15T02:04:54;52.22;;;25.45;;
42244;SDS011;27912;51.828;5.688;2023-02-15T02:07:26;52.22;;;23.67;;
42244;SDS011;27912;51.828;5.688;2023-02-15T02:09:53;46.72;;;24.00;;
42244;SDS011;27912;51.828;5.688;2023-02-15T02:12:19;49.65;;;23.58;;
42244;SDS011;27912;51.828;5.688;2023-02-15T02:14:47;51.53;;;23.92;;
42244;SDS011;27912;51.828;5.688;2023-02-15T02:17:18;46.58;;;24.02;;
42244;SDS011;27912;51.828;5.688;2023-02-15T02:30:40;49.05;;;23.23;;
42244;SDS011;27912;51.828;5.688;2023-02-15T02:33:37;40.67;;;20.92;;
42244;SDS011;27912;51.828;5.688;2023-02-15T02:36:15;49.08;;;23.60;;
42244;SDS011;27912;51.828;5.688;2023-02-15T02:38:58;49.85;;;22.60;;
42244;SDS011;27912;51.828;5.688;2023-02-15T02:44:54;53.08;;;23.30;;
42244;SDS011;27912;51.828;5.688;2023-02-15T02:47:31;56.88;;;24.23;;
42244;SDS011;27912;51.828;5.688;2023-02-15T02:50:07;36.92;;;20.50;;
42244;SDS011;27912;51.828;5.688;2023-02-15T02:52:39;48.03;;;22.40;;
42244;SDS011;27912;51.828;5.688;2023-02-15T02:55:17;46.13;;;22.83;;
42244;SDS011;27912;51.828;5.688;2023-02-15T02:57:53;48.17;;;22.83;;
42244;SDS011;27912;51.828;5.688;2023-02-15T03:00:26;48.05;;;22.83;;
42244;SDS011;27912;51.828;5.688;2023-02-15T03:02:56;50.75;;;23.90;;
42244;SDS011;27912;51.828;5.688;2023-02-15T03:05:29;48.80;;;22.80;;
42244;SDS011;27912;51.828;5.688;2023-02-15T03:07:57;50.88;;;24.25;;
42244;SDS011;27912;51.828;5.688;2023-02-15T03:10:26;51.72;;;22.75;;
42244;SDS011;27912;51.828;5.688;2023-02-15T03:12:54;52.67;;;23.35;;
42244;SDS011;27912;51.828;5.688;2023-02-15T03:15:21;49.90;;;24.02;;
42244;SDS011;27912;51.828;5.688;2023-02-15T03:17:53;47.80;;;23.00;;
42244;SDS011;27912;51.828;5.688;2023-02-15T03:20:24;52.60;;;23.85;;
42244;SDS011;27912;51.828;5.688;2023-02-15T03:22:53;45.15;;;21.50;;
42244;SDS011;27912;51.828;5.688;2023-02-15T03:25:33;48.55;;;23.27;;
42244;SDS011;27912;51.828;5.688;2023-02-15T03:28:08;51.83;;;22.80;;
42244;SDS011;27912;51.828;5.688;2023-02-15T03:30:38;50.53;;;23.00;;
42244;SDS011;27912;51.828;5.688;2023-02-15T03:33:05;49.05;;;24.30;;
42244;SDS011;27912;51.828;5.688;2023-02-15T03:35:40;50.95;;;22.42;;
42244;SDS011;27912;51.828;5.688;2023-02-15T03:38:09;51.15;;;21.80;;
42244;SDS011;27912;51.828;5.688;2023-02-15T03:40:43;54.42;;;23.05;;
42244;SDS011;27912;51.828;5.688;2023-02-15T03:43:54;54.83;;;23.17;;
42244;SDS011;27912;51.828;5.688;2023-02-15T03:46:32;53.55;;;24.15;;
42244;SDS011;27912;51.828;5.688;2023-02-15T03:49:04;51.33;;;23.08;;
42244;SDS011;27912;51.828;5.688;2023-02-15T03:51:36;52.42;;;22.60;;
42244;SDS011;27912;51.828;5.688;2023-02-15T03:54:06;46.85;;;21.75;;
42244;SDS011;27912;51.828;5.688;2023-02-15T03:56:35;53.67;;;24.08;;
42244;SDS011;27912;51.828;5.688;2023-02-15T03:59:02;52.28;;;23.52;;
42244;SDS011;27912;51.828;5.688;2023-02-15T04:02:00;54.03;;;23.70;;
42244;SDS011;27912;51.828;5.688;2023-02-15T04:04:41;51.20;;;24.73;;
42244;SDS011;27912;51.828;5.688;2023-02-15T04:07:08;58.75;;;24.92;;
42244;SDS011;27912;51.828;5.688;2023-02-15T04:09:34;53.92;;;25.35;;
42244;SDS011;27912;51.828;5.688;2023-02-15T04:12:19;55.03;;;24.17;;
42244;SDS011;27912;51.828;5.688;2023-02-15T04:14:45;55.60;;;24.58;;
42244;SDS011;27912;51.828;5.688;2023-02-15T04:17:29;51.75;;;24.58;;
42244;SDS011;27912;51.828;5.688;2023-02-15T04:19:55;52.42;;;22.58;;
42244;SDS011;27912;51.828;5.688;2023-02-15T04:22:39;52.85;;;25.50;;
42244;SDS011;27912;51.828;5.688;2023-02-15T04:25:23;54.67;;;25.52;;
42244;SDS011;27912;51.828;5.688;2023-02-15T04:27:53;54.70;;;25.30;;
42244;SDS011;27912;51.828;5.688;2023-02-15T04:30:20;57.35;;;25.33;;
42244;SDS011;27912;51.828;5.688;2023-02-15T04:32:47;59.70;;;25.77;;
42244;SDS011;27912;51.828;5.688;2023-02-15T04:35:13;53.65;;;25.50;;
42244;SDS011;27912;51.828;5.688;2023-02-15T04:37:39;49.08;;;22.95;;
42244;SDS011;27912;51.828;5.688;2023-02-15T04:40:06;51.92;;;24.25;;
42244;SDS011;27912;51.828;5.688;2023-02-15T04:42:33;54.33;;;24.85;;
42244;SDS011;27912;51.828;5.688;2023-02-15T04:44:58;57.10;;;25.23;;
42244;SDS011;27912;51.828;5.688;2023-02-15T04:47:24;54.53;;;24.02;;
42244;SDS011;27912;51.828;5.688;2023-02-15T04:49:49;59.15;;;24.17;;
42244;SDS011;27912;51.828;5.688;2023-02-15T04:52:15;56.33;;;25.95;;
42244;SDS011;27912;51.828;5.688;2023-02-15T04:54:42;55.63;;;24.92;;
42244;SDS011;27912;51.828;5.688;2023-02-15T04:57:08;52.47;;;24.88;;
42244;SDS011;27912;51.828;5.688;2023-02-15T04:59:34;57.45;;;24.90;;
42244;SDS011;27912;51.828;5.688;2023-02-15T05:02:00;53.95;;;23.88;;
42244;SDS011;27912;51.828;5.688;2023-02-15T05:04:25;54.92;;;25.13;;
42244;SDS011;27912;51.828;5.688;2023-02-15T05:06:51;56.00;;;24.48;;
42244;SDS011;27912;51.828;5.688;2023-02-15T05:09:17;54.20;;;23.50;;
42244;SDS011;27912;51.828;5.688;2023-02-15T05:11:42;54.85;;;23.60;;
42244;SDS011;27912;51.828;5.688;2023-02-15T05:14:08;56.90;;;24.42;;
42244;SDS011;27912;51.828;5.688;2023-02-15T05:16:33;51.88;;;23.85;;
42244;SDS011;27912;51.828;5.688;2023-02-15T05:18:59;53.55;;;24.98;;
42244;SDS011;27912;51.828;5.688;2023-02-15T05:21:25;58.25;;;25.98;;
42244;SDS011;27912;51.828;5.688;2023-02-15T05:23:51;59.28;;;25.65;;
42244;SDS011;27912;51.828;5.688;2023-02-15T05:26:17;56.35;;;26.70;;
42244;SDS011;27912;51.828;5.688;2023-02-15T05:29:03;55.30;;;25.73;;
42244;SDS011;27912;51.828;5.688;2023-02-15T05:31:30;57.22;;;25.10;;
42244;SDS011;27912;51.828;5.688;2023-02-15T05:33:56;60.65;;;26.65;;
42244;SDS011;27912;51.828;5.688;2023-02-15T05:36:22;59.75;;;26.95;;
42244;SDS011;27912;51.828;5.688;2023-02-15T05:38:47;55.67;;;24.65;;
42244;SDS011;27912;51.828;5.688;2023-02-15T05:41:13;61.25;;;25.65;;
42244;SDS011;27912;51.828;5.688;2023-02-15T05:43:38;64.18;;;25.83;;
42244;SDS011;27912;51.828;5.688;2023-02-15T05:46:04;60.05;;;27.90;;
42244;SDS011;27912;51.828;5.688;2023-02-15T05:48:31;62.83;;;26.27;;
42244;SDS011;27912;51.828;5.688;2023-02-15T05:51:00;65.18;;;26.88;;
42244;SDS011;27912;51.828;5.688;2023-02-15T05:53:34;60.25;;;27.42;;
42244;SDS011;27912;51.828;5.688;2023-02-15T05:56:01;57.53;;;26.60;;
42244;SDS011;27912;51.828;5.688;2023-02-15T05:58:28;61.33;;;27.70;;
42244;SDS011;27912;51.828;5.688;2023-02-15T06:00:56;61.15;;;28.05;;
42244;SDS011;27912;51.828;5.688;2023-02-15T06:03:22;57.85;;;25.92;;
42244;SDS011;27912;51.828;5.688;2023-02-15T06:05:50;62.08;;;27.42;;
42244;SDS011;27912;51.828;5.688;2023-02-15T06:08:16;62.10;;;27.13;;
42244;SDS011;27912;51.828;5.688;2023-02-15T06:10:42;64.15;;;27.73;;
42244;SDS011;27912;51.828;5.688;2023-02-15T06:13:08;61.55;;;26.73;;
42244;SDS011;27912;51.828;5.688;2023-02-15T06:15:33;57.15;;;25.73;;
42244;SDS011;27912;51.828;5.688;2023-02-15T06:17:59;59.90;;;25.70;;
42244;SDS011;27912;51.828;5.688;2023-02-15T06:20:24;62.92;;;26.15;;
42244;SDS011;27912;51.828;5.688;2023-02-15T06:22:50;66.43;;;27.77;;
42244;SDS011;27912;51.828;5.688;2023-02-15T06:25:15;71.18;;;28.77;;
42244;SDS011;27912;51.828;5.688;2023-02-15T06:27:41;65.43;;;29.23;;
42244;SDS011;27912;51.828;5.688;2023-02-15T06:30:07;66.63;;;28.13;;
42244;SDS011;27912;51.828;5.688;2023-02-15T06:32:34;60.90;;;27.17;;
42244;SDS011;27912;51.828;5.688;2023-02-15T06:35:00;65.32;;;28.50;;
42244;SDS011;27912;51.828;5.688;2023-02-15T06:37:25;67.28;;;29.15;;
42244;SDS011;27912;51.828;5.688;2023-02-15T06:39:51;59.13;;;25.80;;
42244;SDS011;27912;51.828;5.688;2023-02-15T06:42:16;71.03;;;28.40;;
42244;SDS011;27912;51.828;5.688;2023-02-15T06:44:43;69.57;;;27.35;;
42244;SDS011;27912;51.828;5.688;2023-02-15T06:47:09;69.00;;;28.25;;
42244;SDS011;27912;51.828;5.688;2023-02-15T06:49:35;66.30;;;27.42;;
42244;SDS011;27912;51.828;5.688;2023-02-15T06:52:01;64.25;;;28.42;;
42244;SDS011;27912;51.828;5.688;2023-02-15T06:54:26;71.20;;;28.85;;
42244;SDS011;27912;51.828;5.688;2023-02-15T06:56:52;60.40;;;26.73;;
42244;SDS011;27912;51.828;5.688;2023-02-15T06:59:17;73.22;;;29.52;;
42244;SDS011;27912;51.828;5.688;2023-02-15T07:01:43;65.47;;;27.77;;
42244;SDS011;27912;51.828;5.688;2023-02-15T07:04:09;67.88;;;30.27;;
42244;SDS011;27912;51.828;5.688;2023-02-15T07:06:34;61.25;;;25.77;;
42244;SDS011;27912;51.828;5.688;2023-02-15T07:09:00;66.68;;;29.42;;
42244;SDS011;27912;51.828;5.688;2023-02-15T07:11:26;69.97;;;28.75;;
42244;SDS011;27912;51.828;5.688;2023-02-15T07:14:10;67.63;;;29.98;;
42244;SDS011;27912;51.828;5.688;2023-02-15T07:16:35;67.43;;;28.95;;
42244;SDS011;27912;51.828;5.688;2023-02-15T07:19:01;68.63;;;29.48;;
42244;SDS011;27912;51.828;5.688;2023-02-15T07:21:26;72.63;;;29.73;;
42244;SDS011;27912;51.828;5.688;2023-02-15T07:23:52;68.30;;;29.40;;
42244;SDS011;27912;51.828;5.688;2023-02-15T07:26:20;69.85;;;29.52;;
42244;SDS011;27912;51.828;5.688;2023-02-15T07:28:46;70.88;;;31.25;;
42244;SDS011;27912;51.828;5.688;2023-02-15T07:31:11;73.85;;;30.27;;
42244;SDS011;27912;51.828;5.688;2023-02-15T07:33:37;66.68;;;27.50;;
42244;SDS011;27912;51.828;5.688;2023-02-15T07:36:03;65.78;;;29.33;;
42244;SDS011;27912;51.828;5.688;2023-02-15T07:38:32;73.57;;;29.92;;
42244;SDS011;27912;51.828;5.688;2023-02-15T07:41:00;73.25;;;29.92;;
42244;SDS011;27912;51.828;5.688;2023-02-15T07:43:27;72.88;;;30.48;;
42244;SDS011;27912;51.828;5.688;2023-02-15T07:45:54;70.97;;;29.50;;
42244;SDS011;27912;51.828;5.688;2023-02-15T07:48:23;75.47;;;30.48;;
42244;SDS011;27912;51.828;5.688;2023-02-15T07:50:48;71.03;;;30.17;;
42244;SDS011;27912;51.828;5.688;2023-02-15T07:53:14;73.32;;;33.00;;
42244;SDS011;27912;51.828;5.688;2023-02-15T07:55:39;75.07;;;33.05;;
42244;SDS011;27912;51.828;5.688;2023-02-15T07:58:05;80.60;;;33.25;;
42244;SDS011;27912;51.828;5.688;2023-02-15T08:00:30;72.18;;;32.03;;
42244;SDS011;27912;51.828;5.688;2023-02-15T08:03:16;73.22;;;31.20;;
42244;SDS011;27912;51.828;5.688;2023-02-15T08:05:42;72.10;;;31.73;;
42244;SDS011;27912;51.828;5.688;2023-02-15T08:08:09;72.45;;;30.70;;
42244;SDS011;27912;51.828;5.688;2023-02-15T08:10:57;74.35;;;33.08;;
42244;SDS011;27912;51.828;5.688;2023-02-15T08:13:42;69.22;;;30.02;;
42244;SDS011;27912;51.828;5.688;2023-02-15T08:16:19;74.57;;;33.80;;
42244;SDS011;27912;51.828;5.688;2023-02-15T08:18:54;69.50;;;31.98;;
42244;SDS011;27912;51.828;5.688;2023-02-15T08:21:21;77.25;;;34.03;;
42244;SDS011;27912;51.828;5.688;2023-02-15T08:23:47;78.50;;;34.00;;
42244;SDS011;27912;51.828;5.688;2023-02-15T08:26:13;72.82;;;33.10;;
42244;SDS011;27912;51.828;5.688;2023-02-15T08:28:40;73.90;;;33.05;;
42244;SDS011;27912;51.828;5.688;2023-02-15T08:31:06;68.57;;;33.10;;
42244;SDS011;27912;51.828;5.688;2023-02-15T08:33:34;65.13;;;32.03;;
42244;SDS011;27912;51.828;5.688;2023-02-15T08:38:33;64.30;;;29.30;;
42244;SDS011;27912;51.828;5.688;2023-02-15T08:41:12;67.00;;;31.77;;
42244;SDS011;27912;51.828;5.688;2023-02-15T08:43:40;69.55;;;30.52;;
42244;SDS011;27912;51.828;5.688;2023-02-15T08:46:07;71.72;;;32.72;;
42244;SDS011;27912;51.828;5.688;2023-02-15T08:48:34;69.78;;;33.50;;
42244;SDS011;27912;51.828;5.688;2023-02-15T08:51:04;68.65;;;33.63;;
42244;SDS011;27912;51.828;5.688;2023-02-15T08:53:37;69.72;;;32.22;;
42244;SDS011;27912;51.828;5.688;2023-02-15T08:56:03;66.20;;;32.10;;
42244;SDS011;27912;51.828;5.688;2023-02-15T08:58:29;68.70;;;34.42;;
42244;SDS011;27912;51.828;5.688;2023-02-15T09:00:58;77.35;;;36.20;;
42244;SDS011;27912;51.828;5.688;2023-02-15T09:03:24;70.72;;;34.58;;
42244;SDS011;27912;51.828;5.688;2023-02-15T09:05:49;65.18;;;31.95;;
42244;SDS011;27912;51.828;5.688;2023-02-15T09:08:15;73.07;;;34.33;;
42244;SDS011;27912;51.828;5.688;2023-02-15T09:10:41;74.95;;;35.03;;
42244;SDS011;27912;51.828;5.688;2023-02-15T09:13:07;78.43;;;32.85;;
42244;SDS011;27912;51.828;5.688;2023-02-15T09:15:32;73.90;;;30.45;;
42244;SDS011;27912;51.828;5.688;2023-02-15T09:17:58;62.45;;;29.48;;
42244;SDS011;27912;51.828;5.688;2023-02-15T09:20:26;68.07;;;33.08;;
42244;SDS011;27912;51.828;5.688;2023-02-15T09:22:53;61.85;;;31.48;;
42244;SDS011;27912;51.828;5.688;2023-02-15T09:25:19;61.30;;;32.55;;
42244;SDS011;27912;51.828;5.688;2023-02-15T09:27:45;71.65;;;33.20;;
42244;SDS011;27912;51.828;5.688;2023-02-15T09:30:11;67.97;;;33.63;;
42244;SDS011;27912;51.828;5.688;2023-02-15T09:32:37;80.05;;;34.45;;
42244;SDS011;27912;51.828;5.688;2023-02-15T09:35:03;66.25;;;33.55;;
42244;SDS011;27912;51.828;5.688;2023-02-15T09:37:29;66.53;;;32.88;;
42244;SDS011;27912;51.828;5.688;2023-02-15T09:39:56;69.85;;;32.78;;
42244;SDS011;27912;51.828;5.688;2023-02-15T09:56:19;61.58;;;30.27;;
42244;SDS011;27912;51.828;5.688;2023-02-15T10:02:12;59.50;;;29.92;;
42244;SDS011;27912;51.828;5.688;2023-02-15T10:04:43;59.45;;;31.38;;
42244;SDS011;27912;51.828;5.688;2023-02-15T10:18:04;60.00;;;32.00;;
42244;SDS011;27912;51.828;5.688;2023-02-15T10:23:11;58.63;;;31.88;;
42244;SDS011;27912;51.828;5.688;2023-02-15T10:26:13;58.58;;;31.67;;
42244;SDS011;27912;51.828;5.688;2023-02-15T10:29:21;60.38;;;32.30;;
42244;SDS011;27912;51.828;5.688;2023-02-15T10:31:51;61.10;;;32.42;;
42244;SDS011;27912;51.828;5.688;2023-02-15T10:34:19;64.00;;;33.72;;
42244;SDS011;27912;51.828;5.688;2023-02-15T10:51:14;54.17;;;30.87;;
42244;SDS011;27912;51.828;5.688;2023-02-15T11:08:24;55.75;;;30.55;;
42244;SDS011;27912;51.828;5.688;2023-02-15T11:10:52;54.67;;;30.77;;
42244;SDS011;27912;51.828;5.688;2023-02-15T11:13:23;53.80;;;30.35;;
42244;SDS011;27912;51.828;5.688;2023-02-15T11:15:54;55.53;;;29.58;;
42244;SDS011;27912;51.828;5.688;2023-02-15T11:21:02;51.72;;;30.45;;
42244;SDS011;27912;51.828;5.688;2023-02-15T11:23:36;58.30;;;31.42;;
42244;SDS011;27912;51.828;5.688;2023-02-15T11:26:12;56.50;;;29.92;;
42244;SDS011;27912;51.828;5.688;2023-02-15T11:28:47;50.65;;;29.38;;
42244;SDS011;27912;51.828;5.688;2023-02-15T11:31:21;53.95;;;30.60;;
42244;SDS011;27912;51.828;5.688;2023-02-15T11:34:12;52.42;;;29.90;;
42244;SDS011;27912;51.828;5.688;2023-02-15T11:36:41;54.38;;;30.05;;
42244;SDS011;27912;51.828;5.688;2023-02-15T11:39:14;50.15;;;29.63;;
42244;SDS011;27912;51.828;5.688;2023-02-15T11:41:46;53.28;;;29.38;;
42244;SDS011;27912;51.828;5.688;2023-02-15T11:44:21;49.28;;;27.70;;
42244;SDS011;27912;51.828;5.688;2023-02-15T11:46:52;47.88;;;27.75;;
42244;SDS011;27912;51.828;5.688;2023-02-15T11:49:27;45.22;;;25.42;;
42244;SDS011;27912;51.828;5.688;2023-02-15T11:51:53;53.15;;;27.73;;
42244;SDS011;27912;51.828;5.688;2023-02-15T11:54:21;46.35;;;26.75;;
42244;SDS011;27912;51.828;5.688;2023-02-15T11:56:51;50.60;;;28.13;;
42244;SDS011;27912;51.828;5.688;2023-02-15T11:59:18;47.90;;;25.85;;
42244;SDS011;27912;51.828;5.688;2023-02-15T12:01:54;46.33;;;27.45;;
42244;SDS011;27912;51.828;5.688;2023-02-15T12:04:28;48.83;;;26.92;;
42244;SDS011;27912;51.828;5.688;2023-02-15T12:09:42;47.65;;;26.00;;
42244;SDS011;27912;51.828;5.688;2023-02-15T12:12:31;45.38;;;25.27;;
42244;SDS011;27912;51.828;5.688;2023-02-15T12:14:59;44.83;;;26.33;;
42244;SDS011;27912;51.828;5.688;2023-02-15T12:17:50;47.30;;;26.63;;
42244;SDS011;27912;51.828;5.688;2023-02-15T12:22:48;43.38;;;25.13;;
42244;SDS011;27912;51.828;5.688;2023-02-15T12:28:37;47.63;;;27.75;;
42244;SDS011;27912;51.828;5.688;2023-02-15T12:31:19;45.85;;;24.58;;
42244;SDS011;27912;51.828;5.688;2023-02-15T12:34:13;44.00;;;24.85;;
42244;SDS011;27912;51.828;5.688;2023-02-15T12:36:44;41.38;;;24.77;;
42244;SDS011;27912;51.828;5.688;2023-02-15T12:39:22;50.28;;;26.00;;
42244;SDS011;27912;51.828;5.688;2023-02-15T12:44:32;41.45;;;24.77;;
42244;SDS011;27912;51.828;5.688;2023-02-15T12:47:00;44.95;;;24.35;;
42244;SDS011;27912;51.828;5.688;2023-02-15T12:49:41;45.47;;;24.30;;
42244;SDS011;27912;51.828;5.688;2023-02-15T12:54:43;44.50;;;25.42;;
42244;SDS011;27912;51.828;5.688;2023-02-15T13:00:35;46.72;;;25.50;;
42244;SDS011;27912;51.828;5.688;2023-02-15T13:02:46;41.40;;;24.02;;
42244;SDS011;27912;51.828;5.688;2023-02-15T13:08:11;45.97;;;23.48;;
42244;SDS011;27912;51.828;5.688;2023-02-15T13:11:03;46.90;;;26.27;;
42244;SDS011;27912;51.828;5.688;2023-02-15T13:13:32;41.42;;;24.75;;
42244;SDS011;27912;51.828;5.688;2023-02-15T13:16:04;46.10;;;26.40;;
42244;SDS011;27912;51.828;5.688;2023-02-15T13:18:35;41.42;;;23.83;;
42244;SDS011;27912;51.828;5.688;2023-02-15T13:21:15;44.47;;;24.48;;
42244;SDS011;27912;51.828;5.688;2023-02-15T13:24:06;43.88;;;24.67;;
42244;SDS011;27912;51.828;5.688;2023-02-15T13:26:41;44.67;;;26.45;;
42244;SDS011;27912;51.828;5.688;2023-02-15T13:29:28;41.30;;;24.35;;
42244;SDS011;27912;51.828;5.688;2023-02-15T13:31:59;43.92;;;25.05;;
42244;SDS011;27912;51.828;5.688;2023-02-15T13:34:37;43.45;;;23.90;;
42244;SDS011;27912;51.828;5.688;2023-02-15T13:47:58;46.15;;;23.90;;
42244;SDS011;27912;51.828;5.688;2023-02-15T13:50:49;43.92;;;24.40;;
42244;SDS011;27912;51.828;5.688;2023-02-15T14:18:18;43.60;;;25.05;;
42244;SDS011;27912;51.828;5.688;2023-02-15T14:28:51;39.55;;;20.75;;
42244;SDS011;27912;51.828;5.688;2023-02-15T14:31:35;39.55;;;22.45;;
42244;SDS011;27912;51.828;5.688;2023-02-15T14:34:07;40.85;;;21.63;;
42244;SDS011;27912;51.828;5.688;2023-02-15T14:36:52;39.30;;;22.55;;
42244;SDS011;27912;51.828;5.688;2023-02-15T14:40:26;40.83;;;22.60;;
42244;SDS011;27912;51.828;5.688;2023-02-15T14:42:45;38.65;;;21.17;;
42244;SDS011;27912;51.828;5.688;2023-02-15T14:48:09;38.63;;;23.27;;
42244;SDS011;27912;51.828;5.688;2023-02-15T14:50:52;42.00;;;23.77;;
42244;SDS011;27912;51.828;5.688;2023-02-15T15:01:30;41.95;;;23.77;;
42244;SDS011;27912;51.828;5.688;2023-02-15T15:04:05;41.58;;;22.42;;
42244;SDS011;27912;51.828;5.688;2023-02-15T15:06:38;40.97;;;22.25;;
42244;SDS011;27912;51.828;5.688;2023-02-15T15:11:45;41.97;;;23.45;;
42244;SDS011;27912;51.828;5.688;2023-02-15T15:16:59;41.35;;;23.23;;
42244;SDS011;27912;51.828;5.688;2023-02-15T15:22:19;44.08;;;23.60;;
42244;SDS011;27912;51.828;5.688;2023-02-15T15:28:02;39.35;;;22.88;;
42244;SDS011;27912;51.828;5.688;2023-02-15T15:32:58;45.55;;;24.80;;
42244;SDS011;27912;51.828;5.688;2023-02-15T15:35:54;42.03;;;22.95;;
42244;SDS011;27912;51.828;5.688;2023-02-15T15:47:11;50.17;;;25.95;;
42244;SDS011;27912;51.828;5.688;2023-02-15T15:52:24;44.42;;;23.92;;
42244;SDS011;27912;51.828;5.688;2023-02-15T15:54:58;45.92;;;24.67;;
42244;SDS011;27912;51.828;5.688;2023-02-15T15:57:34;50.50;;;26.67;;
42244;SDS011;27912;51.828;5.688;2023-02-15T16:00:04;44.47;;;25.00;;
42244;SDS011;27912;51.828;5.688;2023-02-15T16:02:51;46.53;;;25.33;;
42244;SDS011;27912;51.828;5.688;2023-02-15T16:05:17;44.25;;;23.70;;
42244;SDS011;27912;51.828;5.688;2023-02-15T16:07:43;50.50;;;24.55;;
42244;SDS011;27912;51.828;5.688;2023-02-15T16:10:19;48.22;;;25.10;;
42244;SDS011;27912;51.828;5.688;2023-02-15T16:12:47;45.45;;;24.65;;
42244;SDS011;27912;51.828;5.688;2023-02-15T16:15:15;50.13;;;24.67;;
42244;SDS011;27912;51.828;5.688;2023-02-15T16:17:47;47.22;;;23.83;;
42244;SDS011;27912;51.828;5.688;2023-02-15T16:20:21;47.53;;;25.00;;
42244;SDS011;27912;51.828;5.688;2023-02-15T16:23:07;47.33;;;23.85;;
42244;SDS011;27912;51.828;5.688;2023-02-15T16:28:10;46.65;;;23.83;;
42244;SDS011;27912;51.828;5.688;2023-02-15T16:30:37;47.03;;;25.25;;
42244;SDS011;27912;51.828;5.688;2023-02-15T16:33:08;48.33;;;23.90;;
42244;SDS011;27912;51.828;5.688;2023-02-15T16:35:40;50.92;;;23.85;;
42244;SDS011;27912;51.828;5.688;2023-02-15T16:38:17;43.40;;;22.80;;
42244;SDS011;27912;51.828;5.688;2023-02-15T16:40:52;48.90;;;24.85;;
42244;SDS011;27912;51.828;5.688;2023-02-15T16:43:23;44.90;;;23.80;;
42244;SDS011;27912;51.828;5.688;2023-02-15T16:45:51;43.58;;;23.25;;
42244;SDS011;27912;51.828;5.688;2023-02-15T16:48:23;46.00;;;23.42;;
42244;SDS011;27912;51.828;5.688;2023-02-15T16:50:55;47.55;;;25.05;;
42244;SDS011;27912;51.828;5.688;2023-02-15T16:53:24;46.10;;;24.10;;
42244;SDS011;27912;51.828;5.688;2023-02-15T16:55:55;45.03;;;23.38;;
42244;SDS011;27912;51.828;5.688;2023-02-15T16:58:26;43.65;;;24.42;;
42244;SDS011;27912;51.828;5.688;2023-02-15T17:01:00;42.75;;;23.27;;
42244;SDS011;27912;51.828;5.688;2023-02-15T17:03:27;42.15;;;22.20;;
42244;SDS011;27912;51.828;5.688;2023-02-15T17:05:57;44.28;;;23.83;;
42244;SDS011;27912;51.828;5.688;2023-02-15T17:08:29;43.28;;;22.52;;
42244;SDS011;27912;51.828;5.688;2023-02-15T17:13:23;56.00;;;25.58;;
42244;SDS011;27912;51.828;5.688;2023-02-15T17:18:32;42.97;;;23.40;;
42244;SDS011;27912;51.828;5.688;2023-02-15T17:21:08;42.70;;;23.20;;
42244;SDS011;27912;51.828;5.688;2023-02-15T17:23:47;49.25;;;24.70;;
42244;SDS011;27912;51.828;5.688;2023-02-15T17:28:46;44.60;;;23.70;;
42244;SDS011;27912;51.828;5.688;2023-02-15T17:31:15;47.20;;;25.92;;
42244;SDS011;27912;51.828;5.688;2023-02-15T17:33:42;49.38;;;24.95;;
42244;SDS011;27912;51.828;5.688;2023-02-15T17:36:09;46.00;;;25.23;;
42244;SDS011;27912;51.828;5.688;2023-02-15T17:38:40;42.75;;;23.73;;
42244;SDS011;27912;51.828;5.688;2023-02-15T17:41:30;45.75;;;24.00;;
42244;SDS011;27912;51.828;5.688;2023-02-15T17:43:59;50.78;;;25.73;;
42244;SDS011;27912;51.828;5.688;2023-02-15T17:46:25;48.30;;;25.17;;
42244;SDS011;27912;51.828;5.688;2023-02-15T17:48:53;50.38;;;27.48;;
42244;SDS011;27912;51.828;5.688;2023-02-15T17:51:20;46.28;;;24.35;;
42244;SDS011;27912;51.828;5.688;2023-02-15T17:53:47;50.05;;;25.48;;